Página principal
METAR-TAF:

METAR-TAF

Aeroportos :

Aeroporto Internacional de Tóquio

Tóquio-Haneda, Japão

latitude: 35-33N, longitude: 139-47E, altura: 5 m

Observação actual do tempo

O boletim foi feito há 20 minutos, às 15:30 UTC
Vento 3 kt de nor-noroeste
Temperatura 24°C
Humidade 83%
Pressão 1016 hPa
Visibilidade 10 km ou mais
Poucas nuvensa uma altura de 2000 ft
Nuvens dispersasa uma altura de 3500 ft
Nuvens fragmentadasa uma altura de 5000 ft

METAR: RJTT 231530Z 34003KT 9999 FEW020 SCT035 BKN050 24/21 Q1016 NOSIG RMK 1CU020 3SC035 6SC050 A3000

Hora: 00:50 (15:50 UTC)

Previsão

O boletim foi feito há 4 horas e 45 minutos, às 11:05 UTC
Previsão válida de 23 às 12 UTC a 24 às 18 UTC
Vento 8 kt de este
Visibilidade 10 km ou mais
Poucas nuvensa uma altura de 1500 ft
Nuvens fragmentadasa uma altura de 3000 ft
Tornando-se
de 23 às 13 UTC a 23 às 15 UTC
Vento 8 kt de nor-nordeste

TAF: RJTT 231105Z 2312/2418 08008KT 9999 FEW015 BKN030 BECMG 2313/2315 02008KT

Observações e previsões do tempo de mais de 4000 aeroportos (mensagens METAR e TAF).

As estações disponíveis são os pontos amarelos e vermelhos sobre o mapa.

Mova o rato sobre o mapa para ver o nome da estação.

Depois clique no ponto para visualizar as observações e previsões meteorológicas.

Para alterar o mapa : clique nos botões verdes com uma cruz preta para aumentar o zoom; no botão verde com uma pitada de zoom; ou nas setas verdes para mapas adjacentes.


METAR-TAF: